Time;durP1;ratioP1;P1;durP2;ratioP2;P2;SDS_P1;SDS_P2;PMS_P1;PMS_P2;Temp;Humidity;BMP_temperature;BMP_pressure;BME280_temperature;BME280_humidity;BME280_pressure;Samples;Min_cycle;Max_cycle;Signal;HPM_P1;HPM_P2
2022/11/06 18:34:42;;;;;;;86.03;42.25;;;;;;;12.95;100.00;97869.59;5178298;23;20059;-72
2022/11/06 18:37:07;;;;;;;98.75;44.75;;;;;;;12.98;100.00;97869.38;4920099;29;20398;-72
2022/11/06 18:39:33;;;;;;;118.93;53.30;;;;;;;13.09;100.00;97858.81;4925292;29;20027;-71
2022/11/06 18:41:58;;;;;;;108.43;48.33;;;;;;;13.18;100.00;97866.25;4929811;29;20024;-72
2022/11/06 18:44:24;;;;;;;97.60;46.35;;;;;;;13.13;100.00;97862.16;4933640;29;20134;-72
2022/11/06 18:46:50;;;;;;;89.90;42.88;;;;;;;13.11;100.00;97859.56;4921666;29;20040;-71
2022/11/06 18:49:15;;;;;;;85.80;42.13;;;;;;;13.13;100.00;97852.28;4920684;29;20031;-72
2022/11/06 18:51:41;;;;;;;84.43;41.97;;;;;;;13.13;100.00;97848.72;4916808;29;21551;-75
2022/11/06 18:54:08;;;;;;;82.82;42.75;;;;;;;13.12;100.00;97872.03;4922723;29;20046;-72
2022/11/06 18:56:36;;;;;;;88.00;42.97;;;;;;;13.17;100.00;97869.88;4915527;29;20498;-71
2022/11/06 18:59:03;;;;;;;98.60;46.25;;;;;;;13.14;100.00;97867.41;4930644;29;20034;-73
2022/11/06 19:01:28;;;;;;;85.00;44.58;;;;;;;13.07;100.00;97871.47;4911863;29;20027;-72
2022/11/06 19:03:54;;;;;;;94.57;47.10;;;;;;;13.02;100.00;97873.56;4930320;29;20411;-73
2022/11/06 19:06:20;;;;;;;99.53;48.97;;;;;;;13.00;100.00;97883.56;4928355;29;20070;-72
2022/11/06 19:08:46;;;;;;;98.63;47.22;;;;;;;13.00;100.00;97886.25;4912762;29;20055;-72
2022/11/06 19:11:13;;;;;;;104.03;49.75;;;;;;;13.00;100.00;97897.00;4915303;29;20019;-72
2022/11/06 19:13:39;;;;;;;100.82;49.88;;;;;;;13.00;100.00;97888.94;4911661;29;20020;-72
2022/11/06 19:16:06;;;;;;;105.68;50.42;;;;;;;13.06;100.00;97901.97;4909962;29;20023;-72
2022/11/06 19:18:35;;;;;;;89.30;44.15;;;;;;;13.02;100.00;97901.28;4912509;29;20378;-72
2022/11/06 19:21:05;;;;;;;87.30;39.80;;;;;;;13.01;100.00;97896.03;4912111;29;20036;-74
2022/11/06 19:23:30;;;;;;;80.60;39.28;;;;;;;12.95;100.00;97896.44;4930225;29;20098;-73
2022/11/06 19:25:56;;;;;;;76.90;37.60;;;;;;;13.01;100.00;97906.78;4932492;29;20034;-71
2022/11/06 19:28:22;;;;;;;85.43;43.78;;;;;;;13.07;100.00;97905.50;4916771;29;20576;-72
2022/11/06 19:30:48;;;;;;;78.38;40.70;;;;;;;13.05;100.00;97892.16;4931902;29;20170;-71
2022/11/06 19:33:15;;;;;;;77.80;39.08;;;;;;;13.09;100.00;97891.03;4930305;29;20431;-73
2022/11/06 19:35:40;;;;;;;86.03;43.13;;;;;;;13.07;100.00;97884.03;4930107;29;20113;-70
2022/11/06 19:38:06;;;;;;;120.15;57.45;;;;;;;13.08;100.00;97897.38;4913281;29;20039;-73
2022/11/06 19:40:32;;;;;;;131.45;62.03;;;;;;;13.12;100.00;97903.41;4901794;29;20056;-73
2022/11/06 19:42:58;;;;;;;118.50;56.53;;;;;;;13.07;100.00;97894.75;4878618;29;20042;-72
2022/11/06 19:45:25;;;;;;;91.03;43.75;;;;;;;12.96;100.00;97898.16;4893946;29;20024;-72
2022/11/06 19:47:51;;;;;;;80.18;39.20;;;;;;;12.99;100.00;97914.06;4892916;29;20032;-72
2022/11/06 19:50:17;;;;;;;75.10;39.00;;;;;;;12.99;100.00;97914.06;4893679;29;20444;-73
2022/11/06 19:52:42;;;;;;;85.45;41.15;;;;;;;12.96;100.00;97914.25;4894254;29;20104;-71
2022/11/06 19:55:08;;;;;;;84.28;40.92;;;;;;;12.91;100.00;97921.75;4894281;29;20028;-72
2022/11/06 19:57:34;;;;;;;77.75;37.80;;;;;;;12.76;100.00;97915.56;4894392;29;20107;-75
2022/11/06 19:59:59;;;;;;;80.78;39.05;;;;;;;12.68;100.00;97920.56;4894092;29;20107;-71
2022/11/06 20:02:25;;;;;;;82.95;39.17;;;;;;;12.56;100.00;97915.13;4909453;29;20031;-73
2022/11/06 20:04:50;;;;;;;76.10;37.15;;;;;;;12.52;100.00;97916.28;4904545;29;20039;-79
2022/11/06 20:07:16;;;;;;;75.78;36.15;;;;;;;12.35;100.00;97920.91;4895735;29;20040;-78
2022/11/06 20:09:41;;;;;;;67.18;33.30;;;;;;;12.30;100.00;97920.34;4916361;29;20045;-79
2022/11/06 20:12:07;;;;;;;69.75;32.10;;;;;;;12.18;100.00;97913.03;4898442;29;20036;-78
2022/11/06 20:14:33;;;;;;;71.50;33.20;;;;;;;12.12;100.00;97920.63;4882362;29;20039;-77
2022/11/06 20:16:58;;;;;;;73.10;34.28;;;;;;;12.05;100.00;97930.84;4898247;29;20040;-78
2022/11/06 20:19:24;;;;;;;72.05;34.20;;;;;;;11.98;100.00;97926.81;4903778;29;20035;-80
2022/11/06 20:21:50;;;;;;;71.32;35.00;;;;;;;11.91;100.00;97920.97;4882337;29;20063;-79
2022/11/06 20:24:15;;;;;;;77.30;36.40;;;;;;;11.80;100.00;97917.22;4890156;29;20064;-78
2022/11/06 20:26:41;;;;;;;79.05;36.70;;;;;;;11.76;100.00;97915.69;4896593;29;20522;-79
2022/11/06 20:29:07;;;;;;;83.53;37.10;;;;;;;11.75;100.00;97932.72;4895648;29;20032;-80
2022/11/06 20:31:33;;;;;;;79.15;38.13;;;;;;;11.69;100.00;97936.59;4891615;29;20046;-78
2022/11/06 20:33:58;;;;;;;80.60;40.60;;;;;;;11.69;100.00;97944.63;4912096;29;20055;-78
2022/11/06 20:36:27;;;;;;;95.47;45.72;;;;;;;11.56;100.00;97937.44;4901455;29;20024;-78
2022/11/06 20:38:54;;;;;;;110.20;47.90;;;;;;;11.47;100.00;97933.50;4901421;29;20039;-78
2022/11/06 20:41:22;;;;;;;100.82;49.17;;;;;;;11.52;100.00;97949.28;4898268;29;20451;-78
2022/11/06 20:43:47;;;;;;;104.43;48.70;;;;;;;11.33;100.00;97946.81;4896231;29;20431;-78
2022/11/06 20:46:15;;;;;;;129.77;58.22;;;;;;;11.32;100.00;97947.78;4886245;29;20032;-77
2022/11/06 20:48:44;;;;;;;139.93;61.80;;;;;;;11.41;100.00;97950.75;4892922;29;20120;-78
2022/11/06 20:51:12;;;;;;;226.60;70.20;;;;;;;11.47;100.00;97962.09;4913619;29;20068;-78
2022/11/06 20:53:38;;;;;;;184.57;72.70;;;;;;;11.48;100.00;97980.72;4920341;29;20152;-79
2022/11/06 20:56:09;;;;;;;160.82;70.43;;;;;;;11.54;100.00;97980.38;4889907;29;20044;-78
2022/11/06 20:58:34;;;;;;;276.88;80.13;;;;;;;11.49;100.00;97976.25;4898859;29;20032;-79
2022/11/06 21:01:01;;;;;;;303.08;70.03;;;;;;;11.36;100.00;97971.59;4900944;29;20042;-78
2022/11/06 21:03:36;;;;;;;475.27;72.35;;;;;;;11.36;100.00;97978.78;4891171;29;20034;-78
2022/11/06 21:06:02;;;;;;;295.75;65.20;;;;;;;11.37;100.00;97976.03;4888353;29;20032;-79
2022/11/06 21:08:31;;;;;;;158.32;60.72;;;;;;;11.34;100.00;97975.34;4911702;29;20066;-78
2022/11/06 21:11:06;;;;;;;189.68;67.75;;;;;;;11.39;100.00;97979.47;4912163;29;20552;-79
2022/11/06 21:13:33;;;;;;;260.58;70.57;;;;;;;11.46;100.00;97976.44;4908051;29;20490;-78
2022/11/06 21:16:02;;;;;;;184.32;69.45;;;;;;;11.56;100.00;97982.97;4889342;29;20032;-78
2022/11/06 21:18:28;;;;;;;170.27;63.38;;;;;;;11.52;100.00;97978.75;4881074;29;20377;-78
2022/11/06 21:20:54;;;;;;;175.98;67.07;;;;;;;11.59;100.00;97988.16;4909328;29;20055;-78
2022/11/06 21:23:21;;;;;;;204.73;69.30;;;;;;;11.51;100.00;97979.69;4894168;29;20044;-78
2022/11/06 21:25:47;;;;;;;167.25;65.40;;;;;;;11.66;100.00;97993.03;4918092;29;20042;-77
2022/11/06 21:28:15;;;;;;;184.02;67.45;;;;;;;11.65;100.00;97998.50;4894399;29;20118;-78
2022/11/06 21:30:47;;;;;;;157.20;60.70;;;;;;;11.74;100.00;98008.72;4906781;29;20036;-78
2022/11/06 21:33:13;;;;;;;150.27;63.28;;;;;;;11.61;100.00;97970.16;4900882;29;20087;-78
2022/11/06 21:35:40;;;;;;;149.68;57.97;;;;;;;11.68;100.00;98009.91;4903375;29;20028;-78
2022/11/06 21:38:06;;;;;;;157.77;56.08;;;;;;;11.55;100.00;97994.63;4900434;29;20032;-78
2022/11/06 21:40:32;;;;;;;152.48;55.22;;;;;;;11.67;100.00;98016.22;4895179;29;20400;-79
2022/11/06 21:42:57;;;;;;;156.07;54.42;;;;;;;11.62;100.00;98014.78;4902790;29;20546;-78
2022/11/06 21:45:23;;;;;;;213.38;58.28;;;;;;;11.72;100.00;98021.34;4885417;29;20123;-78
2022/11/06 21:47:49;;;;;;;154.73;49.92;;;;;;;11.72;100.00;98016.84;4889450;29;20036;-79
2022/11/06 21:50:18;;;;;;;220.25;54.75;;;;;;;11.72;100.00;98003.44;4900608;29;20393;-79
2022/11/06 21:56:14;;;;;;;159.10;51.83;;;;;;;11.83;100.00;98016.22;4911958;29;20522;-77
2022/11/06 21:58:15;;;;;;;192.18;53.20;;;;;;;11.79;100.00;98004.81;4897201;29;20043;-76
2022/11/06 22:00:40;;;;;;;135.45;52.13;;;;;;;11.83;100.00;98014.41;4898046;29;20023;-77
2022/11/06 22:03:06;;;;;;;173.10;49.75;;;;;;;11.90;100.00;98022.94;4908071;29;20127;-78
2022/11/06 22:05:32;;;;;;;132.52;48.78;;;;;;;11.94;100.00;98019.09;4897769;29;20031;-77
2022/11/06 22:07:57;;;;;;;133.05;48.00;;;;;;;12.00;100.00;98013.38;4905011;29;20024;-78
2022/11/06 22:10:23;;;;;;;122.60;46.22;;;;;;;11.94;100.00;98008.38;4899127;29;20059;-78
2022/11/06 22:12:49;;;;;;;135.45;46.55;;;;;;;11.87;100.00;97999.84;4897404;29;20036;-78
2022/11/06 22:15:14;;;;;;;122.57;41.88;;;;;;;11.92;100.00;97999.56;4917515;29;20164;-78
2022/11/06 22:17:40;;;;;;;115.50;39.78;;;;;;;11.84;100.00;97991.97;4912635;29;20035;-77
2022/11/06 22:20:06;;;;;;;163.50;39.58;;;;;;;11.81;100.00;98005.56;4907640;29;20036;-79
2022/11/06 22:22:31;;;;;;;132.55;37.05;;;;;;;11.76;100.00;98001.44;4917697;29;20063;-78
2022/11/06 22:24:57;;;;;;;148.32;39.33;;;;;;;11.74;100.00;97995.31;4888900;29;20042;-77
2022/11/06 22:27:22;;;;;;;121.32;40.50;;;;;;;11.64;100.00;97996.78;4902382;29;20028;-77
2022/11/06 22:29:48;;;;;;;134.25;39.22;;;;;;;11.65;100.00;98003.88;4889125;29;20040;-76
2022/11/06 22:32:14;;;;;;;151.60;39.50;;;;;;;11.76;100.00;98014.84;4914180;29;20078;-77
2022/11/06 22:34:39;;;;;;;121.65;41.95;;;;;;;11.65;100.00;98001.19;4890453;29;20492;-78
2022/11/06 22:37:05;;;;;;;120.45;42.05;;;;;;;11.68;100.00;98003.69;4899179;29;20040;-79
2022/11/06 22:39:30;;;;;;;137.45;40.13;;;;;;;11.75;100.00;98018.50;4892726;29;20035;-78
2022/11/06 22:42:07;;;;;;;116.03;40.25;;;;;;;11.73;100.00;98002.50;4908918;29;20116;-78
2022/11/06 22:44:34;;;;;;;135.70;40.70;;;;;;;11.77;100.00;98014.75;4897192;29;20531;-78
2022/11/06 22:47:00;;;;;;;188.43;43.05;;;;;;;11.72;100.00;98008.78;4906085;29;20027;-77
2022/11/06 22:49:25;;;;;;;105.32;42.42;;;;;;;11.60;100.00;98001.44;4901326;29;20549;-77
2022/11/06 22:51:51;;;;;;;115.78;43.92;;;;;;;11.57;100.00;98008.78;4893498;29;20031;-77
2022/11/06 22:54:17;;;;;;;133.48;43.33;;;;;;;11.56;100.00;98018.69;4901355;29;20028;-78
2022/11/06 22:56:42;;;;;;;114.70;44.65;;;;;;;11.58;100.00;98006.03;4897790;29;20118;-78
2022/11/06 22:59:10;;;;;;;171.23;46.22;;;;;;;11.66;100.00;98013.66;4893424;29;20484;-78
2022/11/06 23:01:37;;;;;;;137.82;45.95;;;;;;;11.66;100.00;98019.84;4909571;29;20024;-78
2022/11/06 23:04:05;;;;;;;118.13;47.10;;;;;;;11.58;100.00;98008.72;4893667;29;20062;-77
2022/11/06 23:06:31;;;;;;;117.50;42.88;;;;;;;11.63;100.00;98025.38;4893118;29;20510;-78
2022/11/06 23:08:56;;;;;;;95.93;38.67;;;;;;;11.64;100.00;98024.44;4902811;29;20028;-79
2022/11/06 23:11:24;;;;;;;100.20;37.25;;;;;;;11.61;100.00;98023.75;4882462;29;20052;-77
2022/11/06 23:13:50;;;;;;;101.10;34.67;;;;;;;11.50;100.00;98010.13;4890231;29;20514;-77
2022/11/06 23:19:09;;;;;;;140.13;40.08;;;;;;;11.16;100.00;98000.50;4912366;29;20072;-78
2022/11/06 23:21:35;;;;;;;177.57;43.00;;;;;;;11.05;100.00;98001.09;4882605;29;20131;-78
2022/11/06 23:24:01;;;;;;;203.95;45.20;;;;;;;10.98;100.00;98005.09;4900541;29;20036;-76
2022/11/06 23:26:27;;;;;;;110.95;40.83;;;;;;;11.07;100.00;98011.72;4882298;29;20036;-77
2022/11/06 23:28:54;;;;;;;119.05;43.53;;;;;;;11.04;100.00;98017.25;4879820;29;20249;-79
2022/11/06 23:31:19;;;;;;;97.50;41.22;;;;;;;11.06;100.00;98015.34;4896423;29;20059;-77
2022/11/06 23:33:45;;;;;;;99.18;38.38;;;;;;;11.10;100.00;98025.81;4900662;29;20499;-77
2022/11/06 23:36:13;;;;;;;90.80;39.58;;;;;;;11.07;100.00;98014.41;4893396;29;20047;-78
2022/11/06 23:38:39;;;;;;;84.15;37.83;;;;;;;11.18;100.00;98031.59;4897689;29;20028;-79
2022/11/06 23:43:54;;;;;;;84.53;33.00;;;;;;;11.24;100.00;98030.38;4900560;29;20055;-77
2022/11/06 23:46:21;;;;;;;80.28;32.58;;;;;;;11.14;100.00;98021.13;4883878;29;20043;-78
2022/11/06 23:48:47;;;;;;;76.30;29.33;;;;;;;11.02;100.00;98016.47;4895018;29;20045;-77
2022/11/06 23:51:13;;;;;;;68.53;29.77;;;;;;;11.05;100.00;98025.19;4915507;29;20039;-77
2022/11/06 23:53:39;;;;;;;81.90;30.48;;;;;;;11.11;100.00;98026.66;4888876;29;20039;-78
2022/11/06 23:56:08;;;;;;;79.70;29.90;;;;;;;11.16;100.00;98038.84;4886147;29;20051;-77
2022/11/06 23:58:34;;;;;;;71.82;28.38;;;;;;;11.04;100.00;98025.28;4915229;29;20406;-78
